Main page
METAR-TAF:

METAR-TAF

Airports :

Dhahran, Saudi Arabia

King Abdulaziz Air Base

latitude: 26-16N, longitude: 050-09E, elevation: 26 m

Current weather observation

The report was made 1 hour and 13 minutes ago, at 16:00 UTC
Wind 15 kt from the North/Northwest
Temperature 35°C
Humidity 14%
Pressure 999 hPa
Visibility 10 km or more
no clouds below 1500 m and no cumulonimbus

METAR: OEDR 231600Z 34015KT CAVOK 35/04 Q0999 NOSIG

Time: 20:13 (17:13 UTC)

Forecast

The report was made 8 hours and 33 minutes ago, at 08:40 UTC
Forecast valid from 23 at 12 UTC to 24 at 18 UTC
Wind 10 kt from the North with gusts up to 20 kt
Visibility: 8000 m
Temporary
from 23 at 12 UTC to 23 at 17 UTC
Visibility: 5000 m
Blowing dust

TAF: OEDR 230840Z 2312/2418 36010G20KT 8000 NSC TEMPO 2312/2317 5000 BLDU

Weather observations and forecasts of more than 4000 airports (METAR and TAF reports).

The available stations are represented by yellow and red dots on the map.

Hover mouse over dot to see the name of the station.

Then click to see weather observations and forecasts.

To change the map : click on the green buttons with a black cross to zoom in, on the green button with a dash to zoom out, or on the green arrows for adjacent maps.


METAR-TAF: